sensor_id;sensor_type;location;lat;lon;timestamp;temperature;humidity
7720;DHT22;3902;49.474;8.616;2023-06-01T00:00:55;20.50;78.90
7720;DHT22;3902;49.474;8.616;2023-06-01T00:03:21;20.50;79.50
7720;DHT22;3902;49.474;8.616;2023-06-01T00:05:47;20.50;79.00
7720;DHT22;3902;49.474;8.616;2023-06-01T00:08:13;20.50;78.90
7720;DHT22;3902;49.474;8.616;2023-06-01T00:10:38;20.50;79.30
7720;DHT22;3902;49.474;8.616;2023-06-01T00:13:04;20.40;79.80
7720;DHT22;3902;49.474;8.616;2023-06-01T00:15:29;20.50;79.90
7720;DHT22;3902;49.474;8.616;2023-06-01T00:17:55;20.40;79.50
7720;DHT22;3902;49.474;8.616;2023-06-01T00:20:21;20.30;79.20
7720;DHT22;3902;49.474;8.616;2023-06-01T00:22:49;20.30;79.60
7720;DHT22;3902;49.474;8.616;2023-06-01T00:25:15;20.30;79.80
7720;DHT22;3902;49.474;8.616;2023-06-01T00:27:40;20.30;79.50
7720;DHT22;3902;49.474;8.616;2023-06-01T00:30:06;20.20;79.80
7720;DHT22;3902;49.474;8.616;2023-06-01T00:32:32;20.10;79.80
7720;DHT22;3902;49.474;8.616;2023-06-01T00:34:58;20.10;80.20
7720;DHT22;3902;49.474;8.616;2023-06-01T00:37:23;20.20;80.70
7720;DHT22;3902;49.474;8.616;2023-06-01T00:39:49;20.20;80.60
7720;DHT22;3902;49.474;8.616;2023-06-01T00:42:14;20.20;80.90
7720;DHT22;3902;49.474;8.616;2023-06-01T00:44:40;20.20;80.90
7720;DHT22;3902;49.474;8.616;2023-06-01T00:47:06;20.10;80.70
7720;DHT22;3902;49.474;8.616;2023-06-01T00:49:33;20.10;81.00
7720;DHT22;3902;49.474;8.616;2023-06-01T00:51:58;20.10;81.30
7720;DHT22;3902;49.474;8.616;2023-06-01T00:54:24;20.10;80.40
7720;DHT22;3902;49.474;8.616;2023-06-01T00:56:50;20.00;80.10
7720;DHT22;3902;49.474;8.616;2023-06-01T00:59:15;20.00;80.40
7720;DHT22;3902;49.474;8.616;2023-06-01T01:01:41;20.00;81.40
7720;DHT22;3902;49.474;8.616;2023-06-01T01:04:09;20.00;81.50
7720;DHT22;3902;49.474;8.616;2023-06-01T01:09:27;20.00;82.10
7720;DHT22;3902;49.474;8.616;2023-06-01T01:12:00;19.90;82.10
7720;DHT22;3902;49.474;8.616;2023-06-01T01:14:33;19.90;82.20
7720;DHT22;3902;49.474;8.616;2023-06-01T01:17:15;19.90;82.40
7720;DHT22;3902;49.474;8.616;2023-06-01T01:20:01;19.80;82.30
7720;DHT22;3902;49.474;8.616;2023-06-01T01:28:27;19.70;83.00
7720;DHT22;3902;49.474;8.616;2023-06-01T01:30:59;19.70;83.30
7720;DHT22;3902;49.474;8.616;2023-06-01T01:33:26;19.60;83.20
7720;DHT22;3902;49.474;8.616;2023-06-01T01:35:52;19.60;83.60
7720;DHT22;3902;49.474;8.616;2023-06-01T01:38:18;19.60;83.50
7720;DHT22;3902;49.474;8.616;2023-06-01T01:40:43;19.60;83.20
7720;DHT22;3902;49.474;8.616;2023-06-01T01:43:09;19.60;82.80
7720;DHT22;3902;49.474;8.616;2023-06-01T01:45:35;19.60;83.20
7720;DHT22;3902;49.474;8.616;2023-06-01T01:50:50;19.60;82.60
7720;DHT22;3902;49.474;8.616;2023-06-01T01:53:17;19.50;82.00
7720;DHT22;3902;49.474;8.616;2023-06-01T01:55:46;19.60;82.10
7720;DHT22;3902;49.474;8.616;2023-06-01T01:58:14;19.60;82.30
7720;DHT22;3902;49.474;8.616;2023-06-01T02:00:41;19.60;82.40
7720;DHT22;3902;49.474;8.616;2023-06-01T02:03:15;19.60;82.40
7720;DHT22;3902;49.474;8.616;2023-06-01T02:05:41;19.50;81.30
7720;DHT22;3902;49.474;8.616;2023-06-01T02:08:07;19.50;80.90
7720;DHT22;3902;49.474;8.616;2023-06-01T02:10:33;19.50;80.90
7720;DHT22;3902;49.474;8.616;2023-06-01T02:12:59;19.60;81.20
7720;DHT22;3902;49.474;8.616;2023-06-01T02:15:25;19.60;81.00
7720;DHT22;3902;49.474;8.616;2023-06-01T02:17:50;19.60;81.30
7720;DHT22;3902;49.474;8.616;2023-06-01T02:20:17;19.60;80.90
7720;DHT22;3902;49.474;8.616;2023-06-01T02:22:42;19.50;80.70
7720;DHT22;3902;49.474;8.616;2023-06-01T02:25:08;19.60;81.20
7720;DHT22;3902;49.474;8.616;2023-06-01T02:27:34;19.50;81.80
7720;DHT22;3902;49.474;8.616;2023-06-01T02:29:59;19.50;82.60
7720;DHT22;3902;49.474;8.616;2023-06-01T02:32:25;19.30;82.50
7720;DHT22;3902;49.474;8.616;2023-06-01T02:34:52;19.20;83.60
7720;DHT22;3902;49.474;8.616;2023-06-01T02:37:17;19.20;84.20
7720;DHT22;3902;49.474;8.616;2023-06-01T02:39:43;18.90;84.70
7720;DHT22;3902;49.474;8.616;2023-06-01T02:42:08;18.90;85.00
7720;DHT22;3902;49.474;8.616;2023-06-01T02:44:34;18.80;85.30
7720;DHT22;3902;49.474;8.616;2023-06-01T02:46:59;18.90;85.50
7720;DHT22;3902;49.474;8.616;2023-06-01T02:49:25;18.90;85.90
7720;DHT22;3902;49.474;8.616;2023-06-01T02:51:51;18.80;85.80
7720;DHT22;3902;49.474;8.616;2023-06-01T02:54:16;18.80;86.30
7720;DHT22;3902;49.474;8.616;2023-06-01T02:56:42;18.70;86.70
7720;DHT22;3902;49.474;8.616;2023-06-01T02:59:07;18.70;86.70
7720;DHT22;3902;49.474;8.616;2023-06-01T03:01:33;18.70;86.90
7720;DHT22;3902;49.474;8.616;2023-06-01T03:04:01;18.60;87.00
7720;DHT22;3902;49.474;8.616;2023-06-01T03:06:29;18.60;87.50
7720;DHT22;3902;49.474;8.616;2023-06-01T03:08:57;18.50;87.50
7720;DHT22;3902;49.474;8.616;2023-06-01T03:11:23;18.40;87.30
7720;DHT22;3902;49.474;8.616;2023-06-01T03:13:49;18.40;87.80
7720;DHT22;3902;49.474;8.616;2023-06-01T03:16:16;18.40;87.60
7720;DHT22;3902;49.474;8.616;2023-06-01T03:18:42;18.40;88.00
7720;DHT22;3902;49.474;8.616;2023-06-01T03:21:07;18.30;88.10
7720;DHT22;3902;49.474;8.616;2023-06-01T03:23:33;18.30;88.40
7720;DHT22;3902;49.474;8.616;2023-06-01T03:25:59;18.20;88.90
7720;DHT22;3902;49.474;8.616;2023-06-01T03:28:24;18.20;89.10
7720;DHT22;3902;49.474;8.616;2023-06-01T03:30:50;18.10;89.00
7720;DHT22;3902;49.474;8.616;2023-06-01T03:33:16;18.10;89.00
7720;DHT22;3902;49.474;8.616;2023-06-01T03:35:42;18.10;89.20
7720;DHT22;3902;49.474;8.616;2023-06-01T03:38:09;18.10;89.30
7720;DHT22;3902;49.474;8.616;2023-06-01T03:40:35;18.10;89.60
7720;DHT22;3902;49.474;8.616;2023-06-01T03:43:00;18.10;89.40
7720;DHT22;3902;49.474;8.616;2023-06-01T03:45:27;18.00;89.70
7720;DHT22;3902;49.474;8.616;2023-06-01T03:47:53;18.00;89.80
7720;DHT22;3902;49.474;8.616;2023-06-01T03:50:18;18.00;89.90
7720;DHT22;3902;49.474;8.616;2023-06-01T03:52:44;18.00;90.00
7720;DHT22;3902;49.474;8.616;2023-06-01T03:55:10;17.90;90.10
7720;DHT22;3902;49.474;8.616;2023-06-01T03:57:39;17.90;90.20
7720;DHT22;3902;49.474;8.616;2023-06-01T04:00:05;18.00;90.30
7720;DHT22;3902;49.474;8.616;2023-06-01T04:02:50;18.00;90.20
7720;DHT22;3902;49.474;8.616;2023-06-01T04:05:17;17.90;90.30
7720;DHT22;3902;49.474;8.616;2023-06-01T04:07:44;17.90;90.60
7720;DHT22;3902;49.474;8.616;2023-06-01T04:10:11;17.80;90.70
7720;DHT22;3902;49.474;8.616;2023-06-01T04:12:39;17.80;90.70
7720;DHT22;3902;49.474;8.616;2023-06-01T04:15:05;17.80;90.70
7720;DHT22;3902;49.474;8.616;2023-06-01T04:17:31;17.70;90.90
7720;DHT22;3902;49.474;8.616;2023-06-01T04:19:56;17.70;90.80
7720;DHT22;3902;49.474;8.616;2023-06-01T04:22:22;17.80;91.00
7720;DHT22;3902;49.474;8.616;2023-06-01T04:24:47;17.80;91.00
7720;DHT22;3902;49.474;8.616;2023-06-01T04:27:13;17.80;91.20
7720;DHT22;3902;49.474;8.616;2023-06-01T04:29:43;17.80;91.20
7720;DHT22;3902;49.474;8.616;2023-06-01T04:32:09;17.80;91.30
7720;DHT22;3902;49.474;8.616;2023-06-01T04:34:35;17.80;91.50
7720;DHT22;3902;49.474;8.616;2023-06-01T04:37:01;17.70;91.60
7720;DHT22;3902;49.474;8.616;2023-06-01T04:39:29;17.70;91.70
7720;DHT22;3902;49.474;8.616;2023-06-01T04:41:55;17.70;91.70
7720;DHT22;3902;49.474;8.616;2023-06-01T04:44:22;17.70;91.90
7720;DHT22;3902;49.474;8.616;2023-06-01T04:46:48;17.70;92.00
7720;DHT22;3902;49.474;8.616;2023-06-01T04:49:15;17.70;92.30
7720;DHT22;3902;49.474;8.616;2023-06-01T04:51:41;17.70;92.10
7720;DHT22;3902;49.474;8.616;2023-06-01T04:54:07;17.70;92.30
7720;DHT22;3902;49.474;8.616;2023-06-01T04:56:32;17.70;92.20
7720;DHT22;3902;49.474;8.616;2023-06-01T04:58:58;17.80;92.10
7720;DHT22;3902;49.474;8.616;2023-06-01T05:01:25;17.80;92.20
7720;DHT22;3902;49.474;8.616;2023-06-01T05:03:52;17.80;92.30
7720;DHT22;3902;49.474;8.616;2023-06-01T05:06:19;17.80;92.40
7720;DHT22;3902;49.474;8.616;2023-06-01T05:08:45;17.80;92.40
7720;DHT22;3902;49.474;8.616;2023-06-01T05:11:11;17.80;92.40
7720;DHT22;3902;49.474;8.616;2023-06-01T05:13:38;17.90;92.40
7720;DHT22;3902;49.474;8.616;2023-06-01T05:16:04;17.90;92.80
7720;DHT22;3902;49.474;8.616;2023-06-01T05:18:31;17.90;92.80
7720;DHT22;3902;49.474;8.616;2023-06-01T05:20:56;17.90;92.80
7720;DHT22;3902;49.474;8.616;2023-06-01T05:23:23;17.90;92.90
7720;DHT22;3902;49.474;8.616;2023-06-01T05:25:49;18.00;93.00
7720;DHT22;3902;49.474;8.616;2023-06-01T05:28:15;18.00;93.00
7720;DHT22;3902;49.474;8.616;2023-06-01T05:30:40;18.00;92.90
7720;DHT22;3902;49.474;8.616;2023-06-01T05:33:06;18.00;92.70
7720;DHT22;3902;49.474;8.616;2023-06-01T05:35:31;18.10;92.80
7720;DHT22;3902;49.474;8.616;2023-06-01T05:37:57;18.10;93.00
7720;DHT22;3902;49.474;8.616;2023-06-01T05:40:22;18.10;93.00
7720;DHT22;3902;49.474;8.616;2023-06-01T05:42:48;18.20;92.80
7720;DHT22;3902;49.474;8.616;2023-06-01T05:45:13;18.20;92.90
7720;DHT22;3902;49.474;8.616;2023-06-01T05:47:39;18.20;92.70
7720;DHT22;3902;49.474;8.616;2023-06-01T05:50:05;18.30;92.80
7720;DHT22;3902;49.474;8.616;2023-06-01T05:52:31;18.30;92.70
7720;DHT22;3902;49.474;8.616;2023-06-01T05:54:56;18.40;92.80
7720;DHT22;3902;49.474;8.616;2023-06-01T05:57:23;18.40;92.50
7720;DHT22;3902;49.474;8.616;2023-06-01T05:59:48;18.40;92.60
7720;DHT22;3902;49.474;8.616;2023-06-01T06:02:14;18.40;92.80
7720;DHT22;3902;49.474;8.616;2023-06-01T06:04:40;18.50;93.10
7720;DHT22;3902;49.474;8.616;2023-06-01T06:07:05;18.50;93.10
7720;DHT22;3902;49.474;8.616;2023-06-01T06:09:31;18.50;92.80
7720;DHT22;3902;49.474;8.616;2023-06-01T06:11:57;18.50;92.80
7720;DHT22;3902;49.474;8.616;2023-06-01T06:14:23;18.60;92.70
7720;DHT22;3902;49.474;8.616;2023-06-01T06:16:49;18.60;93.00
7720;DHT22;3902;49.474;8.616;2023-06-01T06:19:14;18.70;93.00
7720;DHT22;3902;49.474;8.616;2023-06-01T06:21:41;18.70;93.00
7720;DHT22;3902;49.474;8.616;2023-06-01T06:24:07;18.70;93.20
7720;DHT22;3902;49.474;8.616;2023-06-01T06:26:33;18.80;93.20
7720;DHT22;3902;49.474;8.616;2023-06-01T06:28:58;18.80;93.20
7720;DHT22;3902;49.474;8.616;2023-06-01T06:31:24;18.80;93.40
7720;DHT22;3902;49.474;8.616;2023-06-01T06:33:49;18.90;93.10
7720;DHT22;3902;49.474;8.616;2023-06-01T06:36:15;18.90;93.20
7720;DHT22;3902;49.474;8.616;2023-06-01T06:38:42;18.90;93.10
7720;DHT22;3902;49.474;8.616;2023-06-01T06:41:07;18.90;93.10
7720;DHT22;3902;49.474;8.616;2023-06-01T06:43:33;19.00;93.20
7720;DHT22;3902;49.474;8.616;2023-06-01T06:45:58;19.00;93.20
7720;DHT22;3902;49.474;8.616;2023-06-01T06:48:24;19.00;92.90
7720;DHT22;3902;49.474;8.616;2023-06-01T06:50:50;19.10;92.80
7720;DHT22;3902;49.474;8.616;2023-06-01T06:53:15;19.10;92.80
7720;DHT22;3902;49.474;8.616;2023-06-01T06:55:41;19.20;92.70
7720;DHT22;3902;49.474;8.616;2023-06-01T06:58:08;19.20;92.30
7720;DHT22;3902;49.474;8.616;2023-06-01T07:00:36;19.20;92.30
7720;DHT22;3902;49.474;8.616;2023-06-01T07:03:02;19.20;92.50
7720;DHT22;3902;49.474;8.616;2023-06-01T07:05:28;19.30;92.50
7720;DHT22;3902;49.474;8.616;2023-06-01T07:07:54;19.30;92.40
7720;DHT22;3902;49.474;8.616;2023-06-01T07:10:20;19.40;92.30
7720;DHT22;3902;49.474;8.616;2023-06-01T07:12:45;19.40;92.30
7720;DHT22;3902;49.474;8.616;2023-06-01T07:15:11;19.50;92.30
7720;DHT22;3902;49.474;8.616;2023-06-01T07:17:36;19.50;92.10
7720;DHT22;3902;49.474;8.616;2023-06-01T07:20:03;19.50;92.00
7720;DHT22;3902;49.474;8.616;2023-06-01T07:22:32;19.60;92.10
7720;DHT22;3902;49.474;8.616;2023-06-01T07:24:58;19.60;92.10
7720;DHT22;3902;49.474;8.616;2023-06-01T07:27:24;19.70;92.00
7720;DHT22;3902;49.474;8.616;2023-06-01T07:29:49;19.70;92.00
7720;DHT22;3902;49.474;8.616;2023-06-01T07:32:20;19.80;92.00
7720;DHT22;3902;49.474;8.616;2023-06-01T07:34:46;19.80;92.20
7720;DHT22;3902;49.474;8.616;2023-06-01T07:37:12;19.90;92.10
7720;DHT22;3902;49.474;8.616;2023-06-01T07:39:37;19.90;92.20
7720;DHT22;3902;49.474;8.616;2023-06-01T07:42:03;20.00;92.40
7720;DHT22;3902;49.474;8.616;2023-06-01T07:44:29;20.00;92.30
7720;DHT22;3902;49.474;8.616;2023-06-01T07:46:54;20.10;92.50
7720;DHT22;3902;49.474;8.616;2023-06-01T07:49:20;20.20;92.00
7720;DHT22;3902;49.474;8.616;2023-06-01T07:51:45;20.20;92.20
7720;DHT22;3902;49.474;8.616;2023-06-01T07:54:11;20.30;92.40
7720;DHT22;3902;49.474;8.616;2023-06-01T07:56:36;20.30;92.80
7720;DHT22;3902;49.474;8.616;2023-06-01T07:59:02;20.40;92.90
7720;DHT22;3902;49.474;8.616;2023-06-01T08:01:28;20.50;92.30
7720;DHT22;3902;49.474;8.616;2023-06-01T08:03:53;20.50;91.80
7720;DHT22;3902;49.474;8.616;2023-06-01T08:06:21;20.50;91.80
7720;DHT22;3902;49.474;8.616;2023-06-01T08:08:48;20.60;91.90
7720;DHT22;3902;49.474;8.616;2023-06-01T08:11:15;20.60;91.90
7720;DHT22;3902;49.474;8.616;2023-06-01T08:13:41;20.70;92.70
7720;DHT22;3902;49.474;8.616;2023-06-01T08:16:06;20.80;92.20
7720;DHT22;3902;49.474;8.616;2023-06-01T08:18:32;20.90;91.60
7720;DHT22;3902;49.474;8.616;2023-06-01T08:20:58;21.00;91.80
7720;DHT22;3902;49.474;8.616;2023-06-01T08:23:26;21.00;91.30
7720;DHT22;3902;49.474;8.616;2023-06-01T08:25:52;21.10;91.10
7720;DHT22;3902;49.474;8.616;2023-06-01T08:28:17;21.10;91.40
7720;DHT22;3902;49.474;8.616;2023-06-01T08:30:43;21.20;91.10
7720;DHT22;3902;49.474;8.616;2023-06-01T08:33:08;21.30;90.90
7720;DHT22;3902;49.474;8.616;2023-06-01T08:35:59;21.30;91.00
7720;DHT22;3902;49.474;8.616;2023-06-01T08:38:27;21.50;91.50
7720;DHT22;3902;49.474;8.616;2023-06-01T08:40:59;21.50;91.60
7720;DHT22;3902;49.474;8.616;2023-06-01T08:43:30;21.60;91.00
7720;DHT22;3902;49.474;8.616;2023-06-01T08:45:58;21.60;91.20
7720;DHT22;3902;49.474;8.616;2023-06-01T08:48:27;21.70;91.40
7720;DHT22;3902;49.474;8.616;2023-06-01T08:50:54;21.80;91.50
7720;DHT22;3902;49.474;8.616;2023-06-01T08:53:21;21.90;90.80
7720;DHT22;3902;49.474;8.616;2023-06-01T08:55:55;22.00;91.30
7720;DHT22;3902;49.474;8.616;2023-06-01T08:58:21;22.20;90.70
7720;DHT22;3902;49.474;8.616;2023-06-01T09:00:50;22.20;89.70
7720;DHT22;3902;49.474;8.616;2023-06-01T09:03:17;22.20;88.00
7720;DHT22;3902;49.474;8.616;2023-06-01T09:05:42;22.30;88.50
7720;DHT22;3902;49.474;8.616;2023-06-01T09:08:09;22.40;89.00
7720;DHT22;3902;49.474;8.616;2023-06-01T09:10:35;22.50;90.40
7720;DHT22;3902;49.474;8.616;2023-06-01T09:13:00;22.60;89.00
7720;DHT22;3902;49.474;8.616;2023-06-01T09:15:26;22.70;88.50
7720;DHT22;3902;49.474;8.616;2023-06-01T09:17:53;22.80;88.60
7720;DHT22;3902;49.474;8.616;2023-06-01T09:20:29;22.80;88.80
7720;DHT22;3902;49.474;8.616;2023-06-01T09:22:57;22.90;88.40
7720;DHT22;3902;49.474;8.616;2023-06-01T09:25:28;22.90;87.10
7720;DHT22;3902;49.474;8.616;2023-06-01T09:27:55;23.00;87.10
7720;DHT22;3902;49.474;8.616;2023-06-01T09:30:23;23.00;86.00
7720;DHT22;3902;49.474;8.616;2023-06-01T09:32:49;23.20;86.60
7720;DHT22;3902;49.474;8.616;2023-06-01T09:35:42;23.20;86.90
7720;DHT22;3902;49.474;8.616;2023-06-01T09:38:08;23.30;86.40
7720;DHT22;3902;49.474;8.616;2023-06-01T09:40:34;23.40;88.40
7720;DHT22;3902;49.474;8.616;2023-06-01T09:43:00;23.50;87.30
7720;DHT22;3902;49.474;8.616;2023-06-01T09:45:30;23.60;85.70
7720;DHT22;3902;49.474;8.616;2023-06-01T09:48:15;23.70;85.20
7720;DHT22;3902;49.474;8.616;2023-06-01T09:50:42;23.80;84.00
7720;DHT22;3902;49.474;8.616;2023-06-01T09:53:08;23.90;85.00
7720;DHT22;3902;49.474;8.616;2023-06-01T09:55:33;23.90;86.00
7720;DHT22;3902;49.474;8.616;2023-06-01T10:00:51;24.00;80.50
7720;DHT22;3902;49.474;8.616;2023-06-01T10:03:18;24.10;80.90
7720;DHT22;3902;49.474;8.616;2023-06-01T10:05:45;24.20;80.00
7720;DHT22;3902;49.474;8.616;2023-06-01T10:08:12;24.30;78.90
7720;DHT22;3902;49.474;8.616;2023-06-01T10:10:39;24.40;80.20
7720;DHT22;3902;49.474;8.616;2023-06-01T10:13:05;24.50;78.20
7720;DHT22;3902;49.474;8.616;2023-06-01T10:15:32;24.50;81.00
7720;DHT22;3902;49.474;8.616;2023-06-01T10:17:59;24.70;77.60
7720;DHT22;3902;49.474;8.616;2023-06-01T10:20:25;24.80;76.40
7720;DHT22;3902;49.474;8.616;2023-06-01T10:22:51;24.70;73.40
7720;DHT22;3902;49.474;8.616;2023-06-01T10:25:18;24.80;73.70
7720;DHT22;3902;49.474;8.616;2023-06-01T10:27:55;24.90;73.90
7720;DHT22;3902;49.474;8.616;2023-06-01T10:30:23;24.90;74.90
7720;DHT22;3902;49.474;8.616;2023-06-01T10:32:49;25.00;74.10
7720;DHT22;3902;49.474;8.616;2023-06-01T10:40:44;25.30;72.20
7720;DHT22;3902;49.474;8.616;2023-06-01T10:46:33;25.60;73.90
7720;DHT22;3902;49.474;8.616;2023-06-01T10:48:59;25.70;71.00
7720;DHT22;3902;49.474;8.616;2023-06-01T10:51:24;25.80;71.70
7720;DHT22;3902;49.474;8.616;2023-06-01T10:53:51;25.90;72.80
7720;DHT22;3902;49.474;8.616;2023-06-01T10:56:27;25.90;72.70
7720;DHT22;3902;49.474;8.616;2023-06-01T11:01:34;26.10;73.90
7720;DHT22;3902;49.474;8.616;2023-06-01T11:04:01;26.20;74.00
7720;DHT22;3902;49.474;8.616;2023-06-01T11:06:31;26.30;74.20
7720;DHT22;3902;49.474;8.616;2023-06-01T11:09:00;26.40;73.10
7720;DHT22;3902;49.474;8.616;2023-06-01T11:14:14;26.60;75.70
7720;DHT22;3902;49.474;8.616;2023-06-01T11:16:40;26.70;76.50
7720;DHT22;3902;49.474;8.616;2023-06-01T11:19:07;26.90;78.50
7720;DHT22;3902;49.474;8.616;2023-06-01T11:21:38;27.00;77.00
7720;DHT22;3902;49.474;8.616;2023-06-01T11:24:15;27.10;77.30
7720;DHT22;3902;49.474;8.616;2023-06-01T11:26:45;27.30;76.60
7720;DHT22;3902;49.474;8.616;2023-06-01T11:29:21;27.40;74.90
7720;DHT22;3902;49.474;8.616;2023-06-01T11:31:53;27.50;75.00
7720;DHT22;3902;49.474;8.616;2023-06-01T11:34:25;27.60;75.60
7720;DHT22;3902;49.474;8.616;2023-06-01T11:36:54;27.70;76.20
7720;DHT22;3902;49.474;8.616;2023-06-01T11:39:27;27.80;76.20
7720;DHT22;3902;49.474;8.616;2023-06-01T11:44:36;27.90;73.90
7720;DHT22;3902;49.474;8.616;2023-06-01T11:47:02;28.00;74.50
7720;DHT22;3902;49.474;8.616;2023-06-01T11:49:28;28.10;74.60
7720;DHT22;3902;49.474;8.616;2023-06-01T11:51:54;28.30;74.90
7720;DHT22;3902;49.474;8.616;2023-06-01T11:54:27;28.30;73.90
7720;DHT22;3902;49.474;8.616;2023-06-01T11:56:55;28.50;73.40
7720;DHT22;3902;49.474;8.616;2023-06-01T11:59:21;28.60;73.60
7720;DHT22;3902;49.474;8.616;2023-06-01T12:01:48;28.70;73.10
7720;DHT22;3902;49.474;8.616;2023-06-01T12:04:19;28.70;71.90
7720;DHT22;3902;49.474;8.616;2023-06-01T12:06:45;28.80;72.00
7720;DHT22;3902;49.474;8.616;2023-06-01T12:09:12;28.90;72.00
7720;DHT22;3902;49.474;8.616;2023-06-01T12:11:39;28.90;72.60
7720;DHT22;3902;49.474;8.616;2023-06-01T12:14:06;29.10;71.00
7720;DHT22;3902;49.474;8.616;2023-06-01T12:16:53;29.10;70.50
7720;DHT22;3902;49.474;8.616;2023-06-01T12:19:20;29.20;71.70
7720;DHT22;3902;49.474;8.616;2023-06-01T12:21:50;29.20;68.70
7720;DHT22;3902;49.474;8.616;2023-06-01T12:24:17;29.30;71.00
7720;DHT22;3902;49.474;8.616;2023-06-01T12:26:42;29.10;70.20
7720;DHT22;3902;49.474;8.616;2023-06-01T12:29:08;29.20;70.40
7720;DHT22;3902;49.474;8.616;2023-06-01T12:31:34;29.20;66.00
7720;DHT22;3902;49.474;8.616;2023-06-01T12:34:00;29.20;70.40
7720;DHT22;3902;49.474;8.616;2023-06-01T12:36:35;29.40;69.40
7720;DHT22;3902;49.474;8.616;2023-06-01T12:39:03;29.40;67.90
7720;DHT22;3902;49.474;8.616;2023-06-01T12:41:30;29.50;70.60
7720;DHT22;3902;49.474;8.616;2023-06-01T12:43:56;29.60;67.80
7720;DHT22;3902;49.474;8.616;2023-06-01T12:46:27;29.60;67.90
7720;DHT22;3902;49.474;8.616;2023-06-01T12:49:15;29.70;66.70
7720;DHT22;3902;49.474;8.616;2023-06-01T12:51:45;29.70;66.70
7720;DHT22;3902;49.474;8.616;2023-06-01T12:54:11;29.80;68.10
7720;DHT22;3902;49.474;8.616;2023-06-01T12:56:37;29.80;68.60
7720;DHT22;3902;49.474;8.616;2023-06-01T12:59:02;29.90;68.90
7720;DHT22;3902;49.474;8.616;2023-06-01T13:01:28;30.00;67.40
7720;DHT22;3902;49.474;8.616;2023-06-01T13:03:53;30.10;68.20
7720;DHT22;3902;49.474;8.616;2023-06-01T13:06:20;30.20;68.10
7720;DHT22;3902;49.474;8.616;2023-06-01T13:08:45;30.30;68.70
7720;DHT22;3902;49.474;8.616;2023-06-01T13:11:11;30.40;66.80
7720;DHT22;3902;49.474;8.616;2023-06-01T13:13:36;30.40;67.60
7720;DHT22;3902;49.474;8.616;2023-06-01T13:16:02;30.50;67.90
7720;DHT22;3902;49.474;8.616;2023-06-01T13:18:28;30.70;67.80
7720;DHT22;3902;49.474;8.616;2023-06-01T13:20:53;30.80;67.30
7720;DHT22;3902;49.474;8.616;2023-06-01T13:23:19;30.90;66.40
7720;DHT22;3902;49.474;8.616;2023-06-01T13:25:45;30.90;66.60
7720;DHT22;3902;49.474;8.616;2023-06-01T13:28:11;31.00;67.20
7720;DHT22;3902;49.474;8.616;2023-06-01T13:30:38;31.10;65.70
7720;DHT22;3902;49.474;8.616;2023-06-01T13:33:05;31.20;67.30
7720;DHT22;3902;49.474;8.616;2023-06-01T13:35:31;31.20;67.30
7720;DHT22;3902;49.474;8.616;2023-06-01T13:37:57;31.20;65.10
7720;DHT22;3902;49.474;8.616;2023-06-01T13:40:23;31.30;65.80
7720;DHT22;3902;49.474;8.616;2023-06-01T13:42:52;31.30;65.10
7720;DHT22;3902;49.474;8.616;2023-06-01T13:45:19;31.40;65.90
7720;DHT22;3902;49.474;8.616;2023-06-01T13:47:45;31.40;66.40
7720;DHT22;3902;49.474;8.616;2023-06-01T13:50:11;31.40;63.50
7720;DHT22;3902;49.474;8.616;2023-06-01T13:52:40;31.40;63.20
7720;DHT22;3902;49.474;8.616;2023-06-01T13:55:07;31.50;64.60
7720;DHT22;3902;49.474;8.616;2023-06-01T13:57:34;31.50;64.10
7720;DHT22;3902;49.474;8.616;2023-06-01T14:00:00;31.50;65.40
7720;DHT22;3902;49.474;8.616;2023-06-01T14:02:26;31.50;65.30
7720;DHT22;3902;49.474;8.616;2023-06-01T14:04:52;31.60;65.40
7720;DHT22;3902;49.474;8.616;2023-06-01T14:07:18;31.70;66.80
7720;DHT22;3902;49.474;8.616;2023-06-01T14:09:44;31.70;66.40
7720;DHT22;3902;49.474;8.616;2023-06-01T14:12:09;31.80;65.30
7720;DHT22;3902;49.474;8.616;2023-06-01T14:14:37;31.80;65.20
7720;DHT22;3902;49.474;8.616;2023-06-01T14:17:02;31.80;65.10
7720;DHT22;3902;49.474;8.616;2023-06-01T14:19:28;31.80;62.10
7720;DHT22;3902;49.474;8.616;2023-06-01T14:21:53;31.80;63.60
7720;DHT22;3902;49.474;8.616;2023-06-01T14:24:20;31.80;62.20
7720;DHT22;3902;49.474;8.616;2023-06-01T14:26:46;31.80;63.90
7720;DHT22;3902;49.474;8.616;2023-06-01T14:29:11;31.80;64.50
7720;DHT22;3902;49.474;8.616;2023-06-01T14:31:37;31.80;63.20
7720;DHT22;3902;49.474;8.616;2023-06-01T14:34:02;31.80;63.30
7720;DHT22;3902;49.474;8.616;2023-06-01T14:36:28;31.70;62.20
7720;DHT22;3902;49.474;8.616;2023-06-01T14:38:53;31.60;66.20
7720;DHT22;3902;49.474;8.616;2023-06-01T14:41:19;31.60;64.60
7720;DHT22;3902;49.474;8.616;2023-06-01T14:43:45;31.60;64.70
7720;DHT22;3902;49.474;8.616;2023-06-01T14:46:11;31.70;65.00
7720;DHT22;3902;49.474;8.616;2023-06-01T14:48:36;31.60;63.40
7720;DHT22;3902;49.474;8.616;2023-06-01T14:51:02;31.70;64.00
7720;DHT22;3902;49.474;8.616;2023-06-01T14:53:28;31.60;62.00
7720;DHT22;3902;49.474;8.616;2023-06-01T14:55:53;31.60;63.80
7720;DHT22;3902;49.474;8.616;2023-06-01T14:58:19;31.60;63.30
7720;DHT22;3902;49.474;8.616;2023-06-01T15:00:44;31.60;63.30
7720;DHT22;3902;49.474;8.616;2023-06-01T15:03:10;31.60;63.50
7720;DHT22;3902;49.474;8.616;2023-06-01T15:05:35;31.50;63.30
7720;DHT22;3902;49.474;8.616;2023-06-01T15:08:01;31.50;61.10
7720;DHT22;3902;49.474;8.616;2023-06-01T15:10:27;31.40;61.70
7720;DHT22;3902;49.474;8.616;2023-06-01T15:12:52;31.30;60.90
7720;DHT22;3902;49.474;8.616;2023-06-01T15:15:18;31.30;61.60
7720;DHT22;3902;49.474;8.616;2023-06-01T15:17:44;31.30;64.00
7720;DHT22;3902;49.474;8.616;2023-06-01T15:20:10;31.30;62.10
7720;DHT22;3902;49.474;8.616;2023-06-01T15:22:36;31.30;62.30
7720;DHT22;3902;49.474;8.616;2023-06-01T15:25:02;31.20;61.80
7720;DHT22;3902;49.474;8.616;2023-06-01T15:27:28;31.20;62.30
7720;DHT22;3902;49.474;8.616;2023-06-01T15:29:53;31.10;60.90
7720;DHT22;3902;49.474;8.616;2023-06-01T15:32:19;31.00;60.50
7720;DHT22;3902;49.474;8.616;2023-06-01T15:34:44;31.00;61.00
7720;DHT22;3902;49.474;8.616;2023-06-01T15:37:11;31.00;61.30
7720;DHT22;3902;49.474;8.616;2023-06-01T15:39:37;31.00;62.30
7720;DHT22;3902;49.474;8.616;2023-06-01T15:42:07;30.90;61.30
7720;DHT22;3902;49.474;8.616;2023-06-01T15:44:40;30.90;61.90
7720;DHT22;3902;49.474;8.616;2023-06-01T15:47:07;30.90;62.90
7720;DHT22;3902;49.474;8.616;2023-06-01T15:49:32;30.90;62.10
7720;DHT22;3902;49.474;8.616;2023-06-01T15:51:58;30.90;61.80
7720;DHT22;3902;49.474;8.616;2023-06-01T15:54:23;30.80;61.90
7720;DHT22;3902;49.474;8.616;2023-06-01T15:56:49;30.80;60.70
7720;DHT22;3902;49.474;8.616;2023-06-01T15:59:14;30.70;60.00
7720;DHT22;3902;49.474;8.616;2023-06-01T16:01:40;30.70;59.90
7720;DHT22;3902;49.474;8.616;2023-06-01T16:04:05;30.60;59.70
7720;DHT22;3902;49.474;8.616;2023-06-01T16:06:31;30.60;60.30
7720;DHT22;3902;49.474;8.616;2023-06-01T16:08:56;30.60;62.40
7720;DHT22;3902;49.474;8.616;2023-06-01T16:11:23;30.60;60.10
7720;DHT22;3902;49.474;8.616;2023-06-01T16:13:49;30.50;60.30
7720;DHT22;3902;49.474;8.616;2023-06-01T16:16:15;30.50;60.10
7720;DHT22;3902;49.474;8.616;2023-06-01T16:18:40;30.40;60.20
7720;DHT22;3902;49.474;8.616;2023-06-01T16:21:06;30.40;61.50
7720;DHT22;3902;49.474;8.616;2023-06-01T16:23:32;30.30;59.80
7720;DHT22;3902;49.474;8.616;2023-06-01T16:25:57;30.20;59.70
7720;DHT22;3902;49.474;8.616;2023-06-01T16:28:23;30.10;60.40
7720;DHT22;3902;49.474;8.616;2023-06-01T16:30:48;30.10;61.40